createdAt,value
2023-02-24T00:00:52.221Z,1003.4
2023-02-24T00:01:56.035Z,1003.4
2023-02-24T00:02:58.781Z,1003.3
2023-02-24T00:04:02.227Z,1003.3
2023-02-24T00:05:04.656Z,1003.3
2023-02-24T00:06:06.953Z,1003.3
2023-02-24T00:07:09.929Z,1003.3
2023-02-24T00:08:13.028Z,1003.2
2023-02-24T00:09:15.996Z,1003.2
2023-02-24T00:10:19.607Z,1003.2
2023-02-24T00:11:23.216Z,1003.3
2023-02-24T00:12:26.502Z,1003.3
2023-02-24T00:13:30.023Z,1003.2
2023-02-24T00:14:33.125Z,1003.2
2023-02-24T00:15:36.312Z,1003.2
2023-02-24T00:16:40.179Z,1003.2
2023-02-24T00:17:44.360Z,1003.1
2023-02-24T00:18:47.758Z,1003.2
2023-02-24T00:19:51.041Z,1003.2
2023-02-24T00:20:54.102Z,1003.2
2023-02-24T00:21:57.538Z,1003.1
2023-02-24T00:23:00.990Z,1003.1
2023-02-24T00:24:04.081Z,1003.1
2023-02-24T00:25:06.552Z,1003.1
2023-02-24T00:26:10.071Z,1003.1
2023-02-24T00:27:12.844Z,1003.1
2023-02-24T00:28:15.967Z,1003.1
2023-02-24T00:29:19.790Z,1003
2023-02-24T00:30:23.526Z,1003
2023-02-24T00:31:26.720Z,1003
2023-02-24T00:32:31.684Z,1003
2023-02-24T00:33:35.538Z,1003
2023-02-24T00:34:38.559Z,1003
2023-02-24T00:35:40.717Z,1003
2023-02-24T00:36:43.226Z,1003
2023-02-24T00:37:46.942Z,1003
2023-02-24T00:38:50.242Z,1003
2023-02-24T00:39:52.978Z,1003
2023-02-24T00:40:56.344Z,1002.9
2023-02-24T00:41:59.790Z,1002.9
2023-02-24T00:43:02.573Z,1003
2023-02-24T00:44:05.300Z,1002.9
2023-02-24T00:45:09.071Z,1002.9
2023-02-24T00:46:12.546Z,1002.9
2023-02-24T00:47:16.768Z,1002.8
2023-02-24T00:48:20.019Z,1002.8
2023-02-24T00:49:23.689Z,1002.8
2023-02-24T00:50:26.763Z,1002.8
2023-02-24T00:51:30.147Z,1002.8
2023-02-24T00:52:33.522Z,1002.8
2023-02-24T00:53:36.439Z,1002.7
2023-02-24T00:54:39.443Z,1002.7
2023-02-24T00:55:42.176Z,1002.7
2023-02-24T00:56:44.613Z,1002.6
2023-02-24T00:57:47.603Z,1002.6
2023-02-24T00:58:50.934Z,1002.7
2023-02-24T00:59:54.405Z,1002.6
2023-02-24T01:00:57.973Z,1002.6
2023-02-24T01:02:01.864Z,1002.6
2023-02-24T01:03:04.215Z,1002.6
2023-02-24T01:04:07.692Z,1002.6
2023-02-24T01:05:11.043Z,1002.6
2023-02-24T01:06:14.507Z,1002.6
2023-02-24T01:07:17.811Z,1002.6
2023-02-24T01:08:20.809Z,1002.5
2023-02-24T01:09:23.709Z,1002.5
2023-02-24T01:10:26.753Z,1002.5
2023-02-24T01:11:30.192Z,1002.5
2023-02-24T01:12:33.477Z,1002.5
2023-02-24T01:13:36.614Z,1002.5
2023-02-24T01:14:40.345Z,1002.5
2023-02-24T01:15:43.328Z,1002.5
2023-02-24T01:16:47.468Z,1002.4
2023-02-24T01:17:51.244Z,1002.4
2023-02-24T01:18:54.702Z,1002.4
2023-02-24T01:19:57.892Z,1002.4
2023-02-24T01:21:01.327Z,1002.4
2023-02-24T01:22:04.945Z,1002.4
2023-02-24T01:23:08.103Z,1002.3
2023-02-24T01:24:10.599Z,1002.3
2023-02-24T01:25:13.518Z,1002.3
2023-02-24T01:26:16.329Z,1002.3
2023-02-24T01:27:20.014Z,1002.3
2023-02-24T01:28:22.249Z,1002.3
2023-02-24T01:29:25.342Z,1002.3
2023-02-24T01:30:28.688Z,1002.3
2023-02-24T01:31:32.388Z,1002.3
2023-02-24T01:32:37.516Z,1002.3
2023-02-24T01:33:42.172Z,1002.2
2023-02-24T01:34:45.212Z,1002.2
2023-02-24T01:35:47.646Z,1002.2
2023-02-24T01:36:51.277Z,1002.2
2023-02-24T01:37:54.155Z,1002.2
2023-02-24T01:38:57.534Z,1002.2
2023-02-24T01:40:00.323Z,1002.1
2023-02-24T01:41:02.748Z,1002.1
2023-02-24T01:42:06.021Z,1002.1
2023-02-24T01:43:09.159Z,1002.1
2023-02-24T01:44:11.616Z,1002.1
2023-02-24T01:45:14.412Z,1002
2023-02-24T01:46:17.891Z,1002
2023-02-24T01:47:22.009Z,1002.1
2023-02-24T01:48:25.290Z,1002
2023-02-24T01:49:29.932Z,1002
2023-02-24T01:50:33.089Z,1002
2023-02-24T01:51:36.517Z,1002
2023-02-24T01:52:39.542Z,1001.9
2023-02-24T01:53:42.334Z,1001.9
2023-02-24T01:54:45.132Z,1001.9
2023-02-24T01:55:48.546Z,1001.9
2023-02-24T01:56:51.595Z,1001.9
2023-02-24T01:57:54.388Z,1001.8
2023-02-24T01:58:58.007Z,1001.9
2023-02-24T02:00:00.515Z,1001.9
2023-02-24T02:01:03.423Z,1001.9
2023-02-24T02:02:06.599Z,1001.9
2023-02-24T02:03:11.676Z,1001.9
2023-02-24T02:04:15.816Z,1001.8
2023-02-24T02:05:19.597Z,1001.8
2023-02-24T02:06:22.844Z,1001.8
2023-02-24T02:07:25.384Z,1001.7
2023-02-24T02:08:28.253Z,1001.8
2023-02-24T02:09:30.698Z,1001.8
2023-02-24T02:10:34.363Z,1001.8
2023-02-24T02:11:37.433Z,1001.7
2023-02-24T02:12:39.869Z,1001.7
2023-02-24T02:13:42.739Z,1001.7
2023-02-24T02:14:46.902Z,1001.7
2023-02-24T02:15:50.224Z,1001.7
2023-02-24T02:16:54.083Z,1001.7
2023-02-24T02:17:57.132Z,1001.7
2023-02-24T02:19:00.902Z,1001.7
2023-02-24T02:20:04.729Z,1001.7
2023-02-24T02:21:07.580Z,1001.6
2023-02-24T02:22:10.388Z,1001.6
2023-02-24T02:23:13.372Z,1001.6
2023-02-24T02:24:16.504Z,1001.6
2023-02-24T02:25:19.913Z,1001.6
2023-02-24T02:26:22.675Z,1001.6
2023-02-24T02:27:25.476Z,1001.6
2023-02-24T02:28:28.191Z,1001.6
2023-02-24T02:29:31.256Z,1001.5
2023-02-24T02:30:34.755Z,1001.5
2023-02-24T02:31:38.996Z,1001.5
2023-02-24T02:32:42.651Z,1001.5
2023-02-24T02:33:47.383Z,1001.5
2023-02-24T02:34:51.458Z,1001.5
2023-02-24T02:35:55.330Z,1001.4
2023-02-24T02:36:59.086Z,1001.4
2023-02-24T02:38:02.074Z,1001.4
2023-02-24T02:39:05.146Z,1001.4
2023-02-24T02:40:08.610Z,1001.4
2023-02-24T02:41:12.156Z,1001.4
2023-02-24T02:42:15.819Z,1001.4
2023-02-24T02:43:19.503Z,1001.4
2023-02-24T02:44:22.689Z,1001.4
2023-02-24T02:45:25.277Z,1001.4
2023-02-24T02:46:28.851Z,1001.3
2023-02-24T02:47:32.583Z,1001.3
2023-02-24T02:48:36.038Z,1001.3
2023-02-24T02:49:38.970Z,1001.3
2023-02-24T02:50:41.993Z,1001.2
2023-02-24T02:51:45.409Z,1001.2
2023-02-24T02:52:49.152Z,1001.2
2023-02-24T02:53:51.392Z,1001.2
2023-02-24T02:54:53.941Z,1001.2
2023-02-24T02:55:57.401Z,1001.1
2023-02-24T02:57:01.127Z,1001.1
2023-02-24T02:58:04.728Z,1001.1
2023-02-24T02:59:08.116Z,1001.1
2023-02-24T03:00:10.605Z,1001.1
2023-02-24T03:01:13.836Z,1001.1
2023-02-24T03:02:17.668Z,1001.1
2023-02-24T03:03:21.308Z,1001.1
2023-02-24T03:04:24.679Z,1001
2023-02-24T03:05:27.764Z,1001
2023-02-24T03:06:31.211Z,1000.9
2023-02-24T03:07:34.864Z,1001
2023-02-24T03:08:38.241Z,1000.9
2023-02-24T03:09:41.947Z,1000.9
2023-02-24T03:10:45.082Z,1000.9
2023-02-24T03:11:48.239Z,1000.8
2023-02-24T03:12:51.772Z,1000.8
2023-02-24T03:13:55.124Z,1000.8
2023-02-24T03:14:57.620Z,1000.7
2023-02-24T03:16:00.698Z,1000.7
2023-02-24T03:17:03.801Z,1000.7
2023-02-24T03:18:06.292Z,1000.7
2023-02-24T03:19:09.677Z,1000.7
2023-02-24T03:20:12.293Z,1000.7
2023-02-24T03:21:15.517Z,1000.6
2023-02-24T03:22:18.911Z,1000.6
2023-02-24T03:23:22.806Z,1000.5
2023-02-24T03:24:26.557Z,1000.6
2023-02-24T03:25:29.392Z,1000.5
2023-02-24T03:26:32.610Z,1000.5
2023-02-24T03:27:35.386Z,1000.5
2023-02-24T03:28:38.550Z,1000.5
2023-02-24T03:29:41.375Z,1000.5
2023-02-24T03:30:44.019Z,1000.5
2023-02-24T03:31:47.288Z,1000.4
2023-02-24T03:32:51.612Z,1000.5
2023-02-24T03:33:55.164Z,1000.5
2023-02-24T03:34:58.238Z,1000.4
2023-02-24T03:36:01.797Z,1000.4
2023-02-24T03:37:05.286Z,1000.4
2023-02-24T03:38:08.404Z,1000.4
2023-02-24T03:39:12.527Z,1000.4
2023-02-24T03:40:16.237Z,1000.3
2023-02-24T03:41:20.321Z,1000.4
2023-02-24T03:42:24.675Z,1000.4
2023-02-24T03:43:27.165Z,1000.4
2023-02-24T03:44:30.244Z,1000.3
2023-02-24T03:45:33.588Z,1000.3
2023-02-24T03:46:37.374Z,1000.2
2023-02-24T03:47:40.409Z,1000.2
2023-02-24T03:48:43.895Z,1000.2
2023-02-24T03:49:46.634Z,1000.2
2023-02-24T03:50:49.940Z,1000.1
2023-02-24T03:51:53.348Z,1000.1
2023-02-24T03:52:56.708Z,1000.1
2023-02-24T03:53:59.704Z,1000.1
2023-02-24T03:55:03.571Z,1000.1
2023-02-24T03:56:06.918Z,1000.1
2023-02-24T03:57:10.258Z,1000.1
2023-02-24T03:58:13.333Z,1000.1
2023-02-24T03:59:16.758Z,1000.1
2023-02-24T04:00:19.739Z,1000
2023-02-24T04:01:23.125Z,1000.1
2023-02-24T04:02:26.837Z,1000
2023-02-24T04:03:29.989Z,1000
2023-02-24T04:04:33.803Z,1000
2023-02-24T04:05:37.033Z,1000
2023-02-24T04:06:40.016Z,1000
2023-02-24T04:07:43.354Z,1000
2023-02-24T04:08:46.783Z,1000
2023-02-24T04:09:49.594Z,1000
2023-02-24T04:10:53.360Z,1000
2023-02-24T04:11:56.734Z,1000
2023-02-24T04:13:00.014Z,999.9
2023-02-24T04:14:03.515Z,999.9
2023-02-24T04:15:05.898Z,999.9
2023-02-24T04:16:08.551Z,999.9
2023-02-24T04:17:12.191Z,999.9
2023-02-24T04:18:15.288Z,999.9
2023-02-24T04:19:18.451Z,999.7
2023-02-24T04:20:21.805Z,999.8
2023-02-24T04:21:25.347Z,999.8
2023-02-24T04:22:28.064Z,999.7
2023-02-24T04:23:31.143Z,999.7
2023-02-24T04:24:34.395Z,999.7
2023-02-24T04:25:37.707Z,999.6
2023-02-24T04:26:41.286Z,999.6
2023-02-24T04:27:44.648Z,999.6
2023-02-24T04:28:47.348Z,999.6
2023-02-24T04:29:50.864Z,999.6
2023-02-24T04:30:54.850Z,999.5
2023-02-24T04:31:58.717Z,999.5
2023-02-24T04:33:02.536Z,999.5
2023-02-24T04:34:05.653Z,999.5
2023-02-24T04:35:08.551Z,999.4
2023-02-24T04:36:11.963Z,999.4
2023-02-24T04:37:14.390Z,999.4
2023-02-24T04:38:17.495Z,999.4
2023-02-24T04:39:20.690Z,999.3
2023-02-24T04:40:22.976Z,999.3
2023-02-24T04:41:26.018Z,999.3
2023-02-24T04:42:29.248Z,999.3
2023-02-24T04:43:33.281Z,999.2
2023-02-24T04:44:35.884Z,999.2
2023-02-24T04:45:39.308Z,999.2
2023-02-24T04:46:42.296Z,999.2
2023-02-24T04:47:45.152Z,999.1
2023-02-24T04:48:47.975Z,999.2
2023-02-24T04:49:50.570Z,999.1
2023-02-24T04:50:53.556Z,999.1
2023-02-24T04:51:56.275Z,999.1
2023-02-24T04:52:58.803Z,999
2023-02-24T04:54:01.803Z,999
2023-02-24T04:55:05.828Z,999
2023-02-24T04:56:09.885Z,999
2023-02-24T04:57:12.791Z,998.9
2023-02-24T04:58:16.324Z,998.9
2023-02-24T04:59:19.797Z,998.8
2023-02-24T05:00:23.214Z,998.8
2023-02-24T05:01:26.958Z,998.8
2023-02-24T05:02:29.605Z,998.8
2023-02-24T05:03:32.467Z,998.7
2023-02-24T05:04:35.819Z,998.7
2023-02-24T05:05:39.077Z,998.6
2023-02-24T05:06:42.091Z,998.7
2023-02-24T05:07:45.158Z,998.7
2023-02-24T05:08:47.954Z,998.7
2023-02-24T05:09:51.337Z,998.6
2023-02-24T05:10:54.447Z,998.6
2023-02-24T05:11:57.236Z,998.5
2023-02-24T05:13:02.748Z,998.5
2023-02-24T05:14:06.562Z,998.5
2023-02-24T05:15:10.092Z,998.5
2023-02-24T05:16:12.676Z,998.4
2023-02-24T05:17:16.171Z,998.4
2023-02-24T05:18:19.195Z,998.4
2023-02-24T05:19:22.663Z,998.4
2023-02-24T05:20:26.276Z,998.3
2023-02-24T05:21:30.278Z,998.3
2023-02-24T05:22:33.225Z,998.3
2023-02-24T05:23:36.557Z,998.3
2023-02-24T05:24:39.070Z,998.3
2023-02-24T05:25:42.216Z,998.2
2023-02-24T05:26:44.591Z,998.2
2023-02-24T05:27:47.674Z,998.2
2023-02-24T05:28:51.336Z,998.2
2023-02-24T05:29:56.029Z,998.2
2023-02-24T05:31:00.093Z,998.1
2023-02-24T05:32:03.563Z,998.1
2023-02-24T05:33:07.658Z,998.1
2023-02-24T05:34:10.613Z,998.1
2023-02-24T05:35:13.378Z,998.1
2023-02-24T05:36:16.463Z,998.1
2023-02-24T05:37:19.638Z,998
2023-02-24T05:38:22.086Z,998
2023-02-24T05:39:25.137Z,997.9
2023-02-24T05:40:28.633Z,997.9
2023-02-24T05:41:31.789Z,997.9
2023-02-24T05:42:35.091Z,997.9
2023-02-24T05:43:37.596Z,997.9
2023-02-24T05:44:41.339Z,997.8
2023-02-24T05:45:45.510Z,997.8
2023-02-24T05:46:49.047Z,997.7
2023-02-24T05:47:52.704Z,997.7
2023-02-24T05:48:55.400Z,997.7
2023-02-24T05:49:59.157Z,997.7
2023-02-24T05:51:05.363Z,997.7
2023-02-24T05:52:09.187Z,997.7
2023-02-24T05:53:12.402Z,997.6
2023-02-24T05:54:15.533Z,997.7
2023-02-24T05:55:18.881Z,997.7
2023-02-24T05:56:21.740Z,997.6
2023-02-24T05:57:24.469Z,997.6
2023-02-24T05:58:27.625Z,997.6
2023-02-24T05:59:30.781Z,997.6
2023-02-24T06:00:33.952Z,997.6
2023-02-24T06:01:37.918Z,997.6
2023-02-24T06:02:41.722Z,997.5
2023-02-24T06:03:45.166Z,997.6
2023-02-24T06:04:48.241Z,997.5
2023-02-24T06:05:51.396Z,997.5
2023-02-24T06:06:54.106Z,997.5
2023-02-24T06:07:56.883Z,997.5
2023-02-24T06:08:59.378Z,997.4
2023-02-24T06:10:02.489Z,997.4
2023-02-24T06:11:05.936Z,997.4
2023-02-24T06:12:08.897Z,997.4
2023-02-24T06:13:12.281Z,997.4
2023-02-24T06:14:15.865Z,997.4
2023-02-24T06:15:19.516Z,997.4
2023-02-24T06:16:22.343Z,997.3
2023-02-24T06:17:26.773Z,997.3
2023-02-24T06:18:30.359Z,997.3
2023-02-24T06:19:32.858Z,997.3
2023-02-24T06:20:37.062Z,997.3
2023-02-24T06:21:40.578Z,997.3
2023-02-24T06:22:43.446Z,997.3
2023-02-24T06:23:46.268Z,997.3
2023-02-24T06:24:49.723Z,997.3
2023-02-24T06:25:52.491Z,997.3
2023-02-24T06:26:55.873Z,997.3
2023-02-24T06:27:59.510Z,997.3
2023-02-24T06:29:02.037Z,997.2
2023-02-24T06:30:04.760Z,997.2
2023-02-24T06:31:07.987Z,997.2
2023-02-24T06:32:11.095Z,997.1
2023-02-24T06:33:15.611Z,997.2
2023-02-24T06:34:19.274Z,997.2
2023-02-24T06:35:22.935Z,997.2
2023-02-24T06:36:25.198Z,997.1
2023-02-24T06:37:28.531Z,997.2
2023-02-24T06:38:31.677Z,997.1
2023-02-24T06:39:37.229Z,997.1
2023-02-24T06:40:40.134Z,997
2023-02-24T06:41:43.759Z,997
2023-02-24T06:42:47.776Z,997.1
2023-02-24T06:43:50.364Z,997
2023-02-24T06:44:54.011Z,996.9
2023-02-24T06:45:57.774Z,997
2023-02-24T06:47:00.993Z,996.9
2023-02-24T06:48:03.211Z,996.9
2023-02-24T06:49:06.772Z,996.9
2023-02-24T06:50:10.499Z,996.9
2023-02-24T06:51:14.571Z,996.9
2023-02-24T06:52:18.566Z,996.9
2023-02-24T06:53:22.803Z,996.8
2023-02-24T06:54:25.300Z,996.8
2023-02-24T06:55:28.244Z,996.9
2023-02-24T06:56:32.997Z,996.8
2023-02-24T06:57:36.475Z,996.8
2023-02-24T06:58:39.080Z,996.8
2023-02-24T06:59:41.617Z,996.8
2023-02-24T07:00:44.702Z,996.8
2023-02-24T07:01:47.892Z,996.7
2023-02-24T07:02:51.393Z,996.7
2023-02-24T07:03:54.866Z,996.7
2023-02-24T07:04:58.991Z,996.7
2023-02-24T07:06:02.161Z,996.7
2023-02-24T07:07:05.909Z,996.6
2023-02-24T07:08:08.419Z,996.6
2023-02-24T07:09:11.209Z,996.6
2023-02-24T07:10:13.718Z,996.7
2023-02-24T07:11:16.777Z,996.6
2023-02-24T07:12:20.601Z,996.5
2023-02-24T07:13:23.733Z,996.5
2023-02-24T07:14:27.115Z,996.6
2023-02-24T07:15:30.266Z,996.5
2023-02-24T07:16:33.154Z,996.5
2023-02-24T07:17:36.747Z,996.5
2023-02-24T07:18:40.501Z,996.4
2023-02-24T07:19:43.253Z,996.4
2023-02-24T07:20:47.485Z,996.4
2023-02-24T07:21:50.923Z,996.5
2023-02-24T07:22:54.054Z,996.4
2023-02-24T07:23:59.665Z,996.4
2023-02-24T07:25:02.761Z,996.4
2023-02-24T07:26:06.282Z,996.3
2023-02-24T07:27:10.004Z,996.3
2023-02-24T07:28:13.374Z,996.4
2023-02-24T07:29:17.011Z,996.3
2023-02-24T07:30:20.102Z,996.3
2023-02-24T07:31:24.158Z,996.3
2023-02-24T07:32:29.646Z,996.3
2023-02-24T07:33:32.354Z,996.3
2023-02-24T07:34:35.658Z,996.3
2023-02-24T07:35:41.420Z,996.2
2023-02-24T07:36:45.326Z,996.2
2023-02-24T07:37:48.694Z,996.3
2023-02-24T07:38:51.509Z,996.2
2023-02-24T07:39:54.288Z,996.2
2023-02-24T07:40:57.666Z,996.2
2023-02-24T07:42:00.867Z,996.2
2023-02-24T07:43:04.239Z,996.2
2023-02-24T07:44:06.396Z,996.1
2023-02-24T07:45:09.478Z,996.2
2023-02-24T07:46:13.188Z,996.1
2023-02-24T07:47:16.355Z,996.1
2023-02-24T07:48:19.592Z,996.1
2023-02-24T07:49:22.339Z,996.1
2023-02-24T07:50:25.998Z,996.1
2023-02-24T07:51:29.069Z,996
2023-02-24T07:52:33.196Z,996
2023-02-24T07:53:36.587Z,996
2023-02-24T07:54:40.169Z,996
2023-02-24T07:55:43.121Z,996
2023-02-24T07:56:45.277Z,996
2023-02-24T07:57:48.786Z,995.9
2023-02-24T07:58:52.147Z,996
2023-02-24T07:59:55.433Z,995.9
2023-02-24T08:00:58.171Z,995.8
2023-02-24T08:02:01.535Z,995.8
2023-02-24T08:03:05.036Z,995.8
2023-02-24T08:04:08.148Z,995.8
2023-02-24T08:05:11.778Z,995.8
2023-02-24T08:06:14.727Z,995.8
2023-02-24T08:07:17.663Z,995.8
2023-02-24T08:08:21.638Z,995.8
2023-02-24T08:09:25.041Z,995.8
2023-02-24T08:10:28.415Z,995.7
2023-02-24T08:11:32.145Z,995.7
2023-02-24T08:12:35.908Z,995.7
2023-02-24T08:13:38.953Z,995.7
2023-02-24T08:14:42.569Z,995.6
2023-02-24T08:15:45.576Z,995.6
2023-02-24T08:16:49.386Z,995.6
2023-02-24T08:17:53.135Z,995.6
2023-02-24T08:18:56.304Z,995.5
2023-02-24T08:19:59.701Z,995.5
2023-02-24T08:21:03.756Z,995.5
2023-02-24T08:22:06.983Z,995.5
2023-02-24T08:23:10.024Z,995.5
2023-02-24T08:24:14.256Z,995.5
2023-02-24T08:25:17.934Z,995.4
2023-02-24T08:26:21.866Z,995.3
2023-02-24T08:27:25.616Z,995.5
2023-02-24T08:28:29.036Z,995.4
2023-02-24T08:29:32.447Z,995.3
2023-02-24T08:30:35.743Z,995.3
2023-02-24T08:31:39.736Z,995.3
2023-02-24T08:32:44.110Z,995.4
2023-02-24T08:33:47.531Z,995.3
2023-02-24T08:34:50.838Z,995.3
2023-02-24T08:35:53.748Z,995.2
2023-02-24T08:36:57.143Z,995.3
2023-02-24T08:38:00.442Z,995.3
2023-02-24T08:39:03.747Z,995.2
2023-02-24T08:40:07.313Z,995.2
2023-02-24T08:41:11.090Z,995.1
2023-02-24T08:42:13.981Z,995.1
2023-02-24T08:43:16.842Z,995.1
2023-02-24T08:44:19.403Z,995.1
2023-02-24T08:45:22.345Z,995
2023-02-24T08:46:25.241Z,995
2023-02-24T08:47:29.848Z,995
2023-02-24T08:48:33.291Z,995
2023-02-24T08:49:35.810Z,995
2023-02-24T08:50:39.555Z,994.9
2023-02-24T08:51:42.268Z,994.8
2023-02-24T08:52:45.491Z,994.8
2023-02-24T08:53:47.932Z,994.8
2023-02-24T08:54:51.329Z,994.8
2023-02-24T08:55:54.870Z,994.8
2023-02-24T08:56:58.586Z,994.8
2023-02-24T08:58:02.166Z,994.7
2023-02-24T08:59:06.617Z,994.6
2023-02-24T09:00:09.770Z,994.7
2023-02-24T09:01:12.771Z,994.7
2023-02-24T09:02:17.052Z,994.6
2023-02-24T09:03:20.729Z,994.6
2023-02-24T09:04:24.247Z,994.5
2023-02-24T09:05:28.199Z,994.6
2023-02-24T09:06:31.473Z,994.5
2023-02-24T09:07:34.813Z,994.5
2023-02-24T09:08:39.021Z,994.4
2023-02-24T09:09:43.015Z,994.4
2023-02-24T09:10:46.165Z,994.4
2023-02-24T09:11:50.097Z,994.4
2023-02-24T09:12:53.861Z,994.3
2023-02-24T09:13:56.672Z,994.3
2023-02-24T09:15:00.789Z,994.2
2023-02-24T09:16:04.655Z,994.3
2023-02-24T09:17:08.089Z,994.2
2023-02-24T09:18:10.878Z,994.3
2023-02-24T09:19:13.898Z,994.2
2023-02-24T09:20:17.068Z,994.2
2023-02-24T09:21:21.987Z,994.1
2023-02-24T09:22:25.902Z,994.1
2023-02-24T09:23:27.787Z,994.1
2023-02-24T09:24:30.619Z,994
2023-02-24T09:25:33.983Z,994
2023-02-24T09:26:37.035Z,994
2023-02-24T09:27:40.519Z,993.9
2023-02-24T09:28:44.756Z,993.9
2023-02-24T09:29:48.783Z,993.9
2023-02-24T09:30:52.257Z,994
2023-02-24T09:31:56.433Z,994
2023-02-24T09:33:01.175Z,993.9
2023-02-24T09:34:05.600Z,993.8
2023-02-24T09:35:08.999Z,993.8
2023-02-24T09:36:12.194Z,993.8
2023-02-24T09:37:15.690Z,993.7
2023-02-24T09:38:18.786Z,993.8
2023-02-24T09:39:21.893Z,993.8
2023-02-24T09:40:25.691Z,993.8
2023-02-24T09:41:29.022Z,993.8
2023-02-24T09:42:37.303Z,993.7
2023-02-24T09:43:41.124Z,993.8
2023-02-24T09:44:44.880Z,993.7
2023-02-24T09:45:48.000Z,993.7
2023-02-24T09:46:52.622Z,993.8
2023-02-24T09:47:56.547Z,993.7
2023-02-24T09:49:00.474Z,993.7
2023-02-24T09:50:04.452Z,993.6
2023-02-24T09:51:07.718Z,993.7
2023-02-24T09:52:10.925Z,993.7
2023-02-24T09:53:14.664Z,993.7
2023-02-24T09:54:18.653Z,993.7
2023-02-24T09:55:21.799Z,993.7
2023-02-24T09:56:25.799Z,993.7
2023-02-24T09:57:29.247Z,993.7
2023-02-24T09:58:44.409Z,993.6
2023-02-24T09:59:49.433Z,993.5
2023-02-24T10:00:53.306Z,993.5
2023-02-24T10:01:56.766Z,993.6
2023-02-24T10:03:00.438Z,993.5
2023-02-24T10:04:20.536Z,993.5
2023-02-24T10:05:25.570Z,993.5
2023-02-24T10:06:28.739Z,993.4
2023-02-24T10:07:32.043Z,993.4
2023-02-24T10:08:34.571Z,993.5
2023-02-24T10:09:38.321Z,993.4
2023-02-24T10:10:41.314Z,993.3
2023-02-24T10:11:44.403Z,993.4
2023-02-24T10:12:50.851Z,993.4
2023-02-24T10:13:54.319Z,993.4
2023-02-24T10:15:01.078Z,993.4
2023-02-24T10:16:07.716Z,993.4
2023-02-24T10:17:10.993Z,993.2
2023-02-24T10:18:14.228Z,993.2
2023-02-24T10:19:17.683Z,993.3
2023-02-24T10:20:20.141Z,993.3
2023-02-24T10:21:23.350Z,993.2
2023-02-24T10:22:27.147Z,993.2
2023-02-24T10:23:30.318Z,993.3
2023-02-24T10:24:33.434Z,993.2
2023-02-24T10:25:36.811Z,993.2
2023-02-24T10:26:45.440Z,993.2
2023-02-24T10:28:19.241Z,993.2
2023-02-24T10:29:22.356Z,993.2
2023-02-24T10:30:26.645Z,993.1
2023-02-24T10:31:30.667Z,993.1
2023-02-24T10:32:34.800Z,993.1
2023-02-24T10:33:38.592Z,993.1
2023-02-24T10:34:41.813Z,993.1
2023-02-24T10:35:44.851Z,993.2
2023-02-24T10:36:48.102Z,993.1
2023-02-24T10:37:51.741Z,993.1
2023-02-24T10:38:54.848Z,993.1
2023-02-24T10:39:58.113Z,993
2023-02-24T10:41:01.338Z,993
2023-02-24T10:42:04.921Z,992.8
2023-02-24T10:43:08.563Z,993
2023-02-24T10:44:11.447Z,993
2023-02-24T10:45:19.238Z,993
2023-02-24T10:46:41.838Z,993
2023-02-24T10:47:48.307Z,992.9
2023-02-24T10:48:51.693Z,992.9
2023-02-24T10:49:54.866Z,992.9
2023-02-24T10:50:58.285Z,992.9
2023-02-24T10:52:01.384Z,992.9
2023-02-24T10:53:04.564Z,992.9
2023-02-24T10:54:07.876Z,992.8
2023-02-24T10:55:10.994Z,992.9
2023-02-24T10:56:14.062Z,992.8
2023-02-24T10:57:17.630Z,992.8
2023-02-24T10:58:20.989Z,992.7
2023-02-24T10:59:25.534Z,992.7
2023-02-24T11:00:28.428Z,992.6
2023-02-24T11:01:32.674Z,992.9
2023-02-24T11:02:36.437Z,992.7
2023-02-24T11:03:39.995Z,992.6
2023-02-24T11:04:43.358Z,992.6
2023-02-24T11:05:46.976Z,992.5
2023-02-24T11:06:50.072Z,992.5
2023-02-24T11:07:53.878Z,992.4
2023-02-24T11:08:56.662Z,992.4
2023-02-24T11:10:00.284Z,992.3
2023-02-24T11:11:03.999Z,992.4
2023-02-24T11:12:06.157Z,992.3
2023-02-24T11:13:10.949Z,992.3
2023-02-24T11:14:13.925Z,992.3
2023-02-24T11:15:17.280Z,992.2
2023-02-24T11:16:20.937Z,992.2
2023-02-24T11:17:25.471Z,992.2
2023-02-24T11:18:29.368Z,992.1
2023-02-24T11:19:32.273Z,992
2023-02-24T11:20:50.102Z,992
2023-02-24T11:21:54.147Z,992
2023-02-24T11:22:57.899Z,992
2023-02-24T11:24:01.902Z,991.9
2023-02-24T11:25:05.780Z,991.9
2023-02-24T11:26:09.210Z,991.8
2023-02-24T11:27:12.022Z,991.9
2023-02-24T11:28:15.032Z,991.8
2023-02-24T11:29:18.643Z,991.9
2023-02-24T11:30:22.564Z,991.9
2023-02-24T11:31:27.415Z,991.9
2023-02-24T11:32:33.022Z,991.8
2023-02-24T11:33:37.408Z,991.8
2023-02-24T11:34:40.547Z,991.7
2023-02-24T11:35:43.389Z,991.8
2023-02-24T11:36:46.772Z,991.8
2023-02-24T11:37:49.495Z,991.8
2023-02-24T11:38:52.757Z,991.8
2023-02-24T11:39:56.576Z,991.7
2023-02-24T11:40:59.965Z,991.7
2023-02-24T11:42:03.630Z,991.7
2023-02-24T11:43:06.424Z,991.8
2023-02-24T11:44:15.094Z,991.8
2023-02-24T11:45:19.630Z,991.7
2023-02-24T11:46:23.725Z,991.7
2023-02-24T11:47:26.419Z,991.7
2023-02-24T11:48:30.557Z,991.5
2023-02-24T11:49:34.373Z,991.6
2023-02-24T11:50:37.806Z,991.6
2023-02-24T11:51:41.337Z,991.6
2023-02-24T11:52:44.854Z,991.5
2023-02-24T11:53:48.388Z,991.5
2023-02-24T11:54:51.760Z,991.5
2023-02-24T11:55:53.949Z,991.6
2023-02-24T11:56:57.042Z,991.4
2023-02-24T11:58:00.147Z,991.4
2023-02-24T11:59:03.570Z,991.4
2023-02-24T12:00:06.944Z,991.4
2023-02-24T12:01:10.372Z,991.4
2023-02-24T12:02:13.349Z,991.5
2023-02-24T12:03:16.751Z,991.5
2023-02-24T12:04:21.601Z,991.5
2023-02-24T12:05:27.310Z,991.4
2023-02-24T12:06:30.891Z,991.3
2023-02-24T12:07:34.567Z,991.3
2023-02-24T12:08:38.020Z,991.3
2023-02-24T12:09:41.458Z,991.3
2023-02-24T12:10:44.547Z,991.3
2023-02-24T12:11:47.442Z,991.3
2023-02-24T12:12:50.581Z,991.3
2023-02-24T12:13:53.596Z,991.3
2023-02-24T12:14:56.604Z,991.2
2023-02-24T12:15:59.857Z,991.2
2023-02-24T12:17:03.265Z,991.2
2023-02-24T12:18:06.629Z,991.1
2023-02-24T12:19:09.410Z,991.1
2023-02-24T12:20:13.682Z,991.2
2023-02-24T12:21:16.816Z,991.1
2023-02-24T12:22:19.802Z,991.1
2023-02-24T12:23:23.636Z,991
2023-02-24T12:24:26.747Z,991
2023-02-24T12:25:30.096Z,991
2023-02-24T12:26:33.600Z,991
2023-02-24T12:27:36.475Z,991
2023-02-24T12:28:39.183Z,991
2023-02-24T12:29:42.376Z,990.9
2023-02-24T12:30:45.600Z,990.9
2023-02-24T12:31:50.109Z,991
2023-02-24T12:32:55.133Z,990.9
2023-02-24T12:33:58.771Z,990.9
2023-02-24T12:35:02.248Z,990.9
2023-02-24T12:36:06.414Z,990.9
2023-02-24T12:37:09.575Z,990.9
2023-02-24T12:38:13.041Z,990.9
2023-02-24T12:39:15.921Z,990.8
2023-02-24T12:40:19.107Z,990.9
2023-02-24T12:41:23.699Z,990.8
2023-02-24T12:42:27.262Z,990.8
2023-02-24T12:43:30.346Z,990.7
2023-02-24T12:44:32.861Z,990.7
2023-02-24T12:45:36.739Z,990.7
2023-02-24T12:46:40.712Z,990.7
2023-02-24T12:47:44.208Z,990.8
2023-02-24T12:48:47.625Z,990.7
2023-02-24T12:49:51.079Z,990.7
2023-02-24T12:50:55.174Z,990.7
2023-02-24T12:51:59.402Z,990.7
2023-02-24T12:53:01.918Z,990.5
2023-02-24T12:54:05.289Z,990.6
2023-02-24T12:55:08.695Z,990.5
2023-02-24T12:56:12.268Z,990.6
2023-02-24T12:57:14.985Z,990.6
2023-02-24T12:58:18.415Z,990.5
2023-02-24T12:59:22.841Z,990.6
2023-02-24T13:00:26.473Z,990.5
2023-02-24T13:01:30.337Z,990.5
2023-02-24T13:02:33.722Z,990.4
2023-02-24T13:03:37.380Z,990.4
2023-02-24T13:04:40.822Z,990.4
2023-02-24T13:05:43.679Z,990.4
2023-02-24T13:06:47.173Z,990.3
2023-02-24T13:07:51.357Z,990.4
2023-02-24T13:08:54.883Z,990.4
2023-02-24T13:09:58.659Z,990.4
2023-02-24T13:11:02.085Z,990.3
2023-02-24T13:12:05.403Z,990.3
2023-02-24T13:13:08.279Z,990.3
2023-02-24T13:14:11.650Z,990.3
2023-02-24T13:15:14.376Z,990.3
2023-02-24T13:16:17.784Z,990.3
2023-02-24T13:17:21.652Z,990.3
2023-02-24T13:18:25.128Z,990.2
2023-02-24T13:19:28.824Z,990.2
2023-02-24T13:20:31.918Z,990.2
2023-02-24T13:21:35.499Z,990.2
2023-02-24T13:22:38.569Z,990.1
2023-02-24T13:23:42.898Z,990.1
2023-02-24T13:24:46.178Z,990.1
2023-02-24T13:25:49.284Z,990.1
2023-02-24T13:26:52.666Z,990.1
2023-02-24T13:27:55.910Z,990.1
2023-02-24T13:28:59.265Z,990.1
2023-02-24T13:30:02.854Z,990.1
2023-02-24T13:31:06.500Z,990.1
2023-02-24T13:32:10.692Z,990.1
2023-02-24T13:33:15.099Z,990
2023-02-24T13:34:18.190Z,990
2023-02-24T13:35:21.684Z,990
2023-02-24T13:36:25.148Z,989.9